Terminal Aerodrome Forecast
Issued by NWS

Home | Current Version | Previous Version | Text Only | Print | Product List | Glossary On
Versions: 1 2 3 4 5 6 7 8 9 10 11 12 13 14 15 16 17 18
000
FTPA31 PHFO 261740
TAFHTO
TAF
PHTO 261740Z 2618/2718 VRB05KT P6SM VCSH SCT035 SCT050
     FM262000 10010KT P6SM VCSH SCT035 BKN050
     FM270500 24005KT P6SM VCSH SCT025 BKN045
     FM271100 24008KT P6SM VCSH BKN025 BKN050=

USA.gov is the U.S. government's official web portal to all federal, state and local government web resources and services.